Time;durP1;ratioP1;P1;durP2;ratioP2;P2;SDS_P1;SDS_P2;PMS_P1;PMS_P2;Temp;Humidity;BMP_temperature;BMP_pressure;BME280_temperature;BME280_humidity;BME280_pressure;Samples;Min_cycle;Max_cycle;Signal;HPM_P1;HPM_P2
2023/07/18 00:02:23;;;;;;;13.83;5.97;;;21.90;99.90;;;;;;5072073;28;20698;-69
2023/07/18 00:04:52;;;;;;;10.10;5.57;;;21.70;99.90;;;;;;5073149;28;20195;-69
2023/07/18 00:07:20;;;;;;;7.13;6.37;;;22.00;99.90;;;;;;5073222;28;20168;-68
2023/07/18 00:09:47;;;;;;;7.53;5.53;;;22.50;99.90;;;;;;5072973;28;20199;-68
2023/07/18 00:12:14;;;;;;;10.50;7.13;;;21.90;99.90;;;;;;5073013;28;20179;-68
2023/07/18 00:14:42;;;;;;;17.73;7.07;;;21.60;99.90;;;;;;5073150;28;20236;-69
2023/07/18 00:17:09;;;;;;;12.50;9.00;;;21.60;99.90;;;;;;5072771;28;20294;-67
2023/07/18 00:19:37;;;;;;;13.67;7.83;;;21.40;99.90;;;;;;5072912;28;20516;-67
2023/07/18 00:22:07;;;;;;;11.93;6.93;;;20.90;99.90;;;;;;5073101;28;20168;-68
2023/07/18 00:24:35;;;;;;;13.67;7.50;;;20.30;99.90;;;;;;5072972;28;20688;-67
2023/07/18 00:27:03;;;;;;;14.87;8.00;;;20.90;99.90;;;;;;5071525;28;20183;-69
2023/07/18 00:29:31;;;;;;;15.23;8.43;;;21.40;99.90;;;;;;5071747;28;20637;-68
2023/07/18 00:31:59;;;;;;;14.03;9.03;;;22.20;99.90;;;;;;5072872;28;20187;-69
2023/07/18 00:34:26;;;;;;;12.00;7.83;;;22.30;99.90;;;;;;5076285;28;20179;-70
2023/07/18 00:36:55;;;;;;;9.77;6.50;;;22.30;99.90;;;;;;5076905;28;20352;-68
2023/07/18 00:39:23;;;;;;;14.57;5.97;;;21.70;99.90;;;;;;5076836;28;20190;-68
2023/07/18 00:41:52;;;;;;;12.40;6.87;;;22.20;99.90;;;;;;5076877;28;20695;-68
2023/07/18 00:44:19;;;;;;;14.17;8.20;;;22.90;99.90;;;;;;5075689;28;20641;-69
2023/07/18 00:46:47;;;;;;;16.67;9.23;;;23.20;99.90;;;;;;5076672;28;20674;-71
2023/07/18 00:49:14;;;;;;;15.40;7.70;;;22.90;99.90;;;;;;5076729;28;20263;-69
2023/07/18 00:51:43;;;;;;;10.53;6.73;;;22.20;99.90;;;;;;5076926;28;20207;-68
2023/07/18 00:54:11;;;;;;;13.57;7.87;;;22.10;99.90;;;;;;5076931;28;20299;-68
2023/07/18 00:56:38;;;;;;;10.10;6.83;;;21.70;99.90;;;;;;5076321;28;20286;-68
2023/07/18 00:59:06;;;;;;;13.43;7.27;;;21.20;99.90;;;;;;5076619;28;20176;-70
2023/07/18 01:01:34;;;;;;;11.67;6.87;;;21.70;99.90;;;;;;5074919;28;20727;-69
2023/07/18 01:04:02;;;;;;;11.07;7.93;;;21.70;99.90;;;;;;5076397;28;20178;-68
2023/07/18 01:06:29;;;;;;;12.73;7.77;;;21.90;99.90;;;;;;5076362;28;20175;-68
2023/07/18 01:08:57;;;;;;;12.60;8.83;;;21.70;99.90;;;;;;5076268;28;20178;-67
2023/07/18 01:11:24;;;;;;;17.50;10.17;;;21.90;99.90;;;;;;5076463;28;20254;-68
2023/07/18 01:13:52;;;;;;;17.87;9.37;;;22.10;99.90;;;;;;5074878;28;20191;-68
2023/07/18 01:16:19;;;;;;;19.07;9.00;;;21.90;99.90;;;;;;5075818;28;20223;-67
2023/07/18 01:18:46;;;;;;;15.13;8.60;;;21.70;99.90;;;;;;5075967;28;20223;-69
2023/07/18 01:21:21;;;;;;;14.67;8.67;;;21.70;99.90;;;;;;5076073;28;20207;-67
2023/07/18 01:23:48;;;;;;;15.17;8.27;;;21.60;99.90;;;;;;5076140;28;20182;-68
2023/07/18 01:26:16;;;;;;;13.73;7.53;;;21.70;99.90;;;;;;5076587;28;20579;-67
2023/07/18 01:28:44;;;;;;;16.30;7.53;;;22.20;99.90;;;;;;5076022;28;20186;-68
2023/07/18 01:31:12;;;;;;;17.70;8.67;;;22.20;99.90;;;;;;5075817;28;20187;-70
2023/07/18 01:33:42;;;;;;;16.07;7.77;;;22.40;99.90;;;;;;5075834;28;20256;-68
2023/07/18 01:36:09;;;;;;;17.80;7.73;;;22.60;99.90;;;;;;5075983;28;20176;-68
2023/07/18 01:38:37;;;;;;;15.43;7.30;;;22.80;99.90;;;;;;5075717;28;20672;-68
2023/07/18 01:41:07;;;;;;;13.70;7.27;;;23.30;99.90;;;;;;5075603;28;20208;-68
2023/07/18 01:43:37;;;;;;;21.87;8.67;;;23.10;99.90;;;;;;5075648;28;20176;-69
2023/07/18 01:46:05;;;;;;;20.73;8.03;;;22.70;99.90;;;;;;5075228;28;20222;-68
2023/07/18 01:48:32;;;;;;;16.77;6.70;;;22.90;99.90;;;;;;5075515;28;20172;-67
2023/07/18 01:50:59;;;;;;;12.57;6.77;;;22.40;99.90;;;;;;5075688;28;20654;-68
2023/07/18 01:53:27;;;;;;;9.47;5.53;;;21.90;99.90;;;;;;5075638;28;20167;-68
2023/07/18 01:55:56;;;;;;;15.20;6.13;;;21.80;99.90;;;;;;5075430;28;20201;-68
2023/07/18 01:58:23;;;;;;;8.73;5.60;;;21.70;99.90;;;;;;5075183;28;20277;-68
2023/07/18 02:00:51;;;;;;;10.13;5.77;;;21.40;99.90;;;;;;5075249;28;20258;-68
2023/07/18 02:03:18;;;;;;;13.20;5.20;;;21.20;99.90;;;;;;5073888;28;20186;-68
2023/07/18 02:05:47;;;;;;;15.77;7.97;;;21.30;99.90;;;;;;5075261;28;20179;-69
2023/07/18 02:08:14;;;;;;;20.50;8.07;;;21.00;99.90;;;;;;5074807;28;20202;-68
2023/07/18 02:10:42;;;;;;;13.50;7.63;;;21.00;99.90;;;;;;5075135;28;20231;-68
2023/07/18 02:13:10;;;;;;;15.60;8.20;;;21.30;99.90;;;;;;5075088;28;20183;-68
2023/07/18 02:15:37;;;;;;;12.87;6.93;;;21.30;99.90;;;;;;5074711;28;20314;-67
2023/07/18 02:18:05;;;;;;;9.73;5.77;;;21.30;99.90;;;;;;5075089;28;20234;-68
2023/07/18 02:20:32;;;;;;;9.17;6.17;;;21.70;99.90;;;;;;5074647;28;20182;-68
2023/07/18 02:23:01;;;;;;;12.47;6.30;;;21.80;99.90;;;;;;5074858;28;20265;-68
2023/07/18 02:25:28;;;;;;;12.70;7.73;;;21.70;99.90;;;;;;5073468;28;20267;-67
2023/07/18 02:27:56;;;;;;;19.40;8.13;;;21.90;99.90;;;;;;5075042;28;20182;-68
2023/07/18 02:30:23;;;;;;;17.00;7.87;;;22.10;99.90;;;;;;5074672;28;20175;-68
2023/07/18 02:32:51;;;;;;;16.50;7.63;;;22.10;99.90;;;;;;5074672;28;20176;-69
2023/07/18 02:35:21;;;;;;;13.17;6.90;;;23.00;99.90;;;;;;5074633;28;20172;-69
2023/07/18 02:37:49;;;;;;;16.43;6.87;;;23.40;99.90;;;;;;5074611;28;20215;-70
2023/07/18 02:40:17;;;;;;;12.77;6.03;;;23.80;99.90;;;;;;5074287;28;20179;-69
2023/07/18 02:42:45;;;;;;;13.10;6.27;;;23.90;99.90;;;;;;5074451;28;20179;-69
2023/07/18 02:45:12;;;;;;;9.63;5.60;;;24.10;99.90;;;;;;5074440;28;20175;-68
2023/07/18 02:47:40;;;;;;;17.03;6.23;;;24.40;99.90;;;;;;5073262;28;20168;-69
2023/07/18 02:50:08;;;;;;;15.90;6.13;;;24.60;99.90;;;;;;5072803;28;20180;-69
2023/07/18 02:52:36;;;;;;;14.57;5.57;;;24.40;99.90;;;;;;5074354;28;20175;-68
2023/07/18 02:55:03;;;;;;;8.70;4.50;;;24.80;99.90;;;;;;5074205;28;20183;-71
2023/07/18 02:57:32;;;;;;;14.47;4.37;;;25.10;99.90;;;;;;5073630;28;20219;-69
2023/07/18 03:00:00;;;;;;;11.07;4.10;;;25.00;99.90;;;;;;5073832;28;20168;-70
2023/07/18 03:02:31;;;;;;;12.03;4.43;;;25.40;99.90;;;;;;5073945;28;20184;-68
2023/07/18 03:04:58;;;;;;;8.57;4.10;;;25.40;99.90;;;;;;5074737;28;20180;-67
2023/07/18 03:07:25;;;;;;;11.07;4.43;;;25.20;99.90;;;;;;5072347;28;20199;-68
2023/07/18 03:09:53;;;;;;;9.67;4.00;;;25.20;99.90;;;;;;5074296;28;20225;-69
2023/07/18 03:12:21;;;;;;;12.10;3.77;;;25.10;99.90;;;;;;5073823;28;20262;-69
2023/07/18 03:14:48;;;;;;;7.50;3.60;;;25.00;99.90;;;;;;5073691;28;20664;-70
2023/07/18 03:17:16;;;;;;;13.13;4.93;;;25.30;99.90;;;;;;5073503;28;20227;-71
2023/07/18 03:19:43;;;;;;;12.70;3.73;;;24.90;99.90;;;;;;5073547;28;20175;-69
2023/07/18 03:22:11;;;;;;;12.00;4.13;;;24.30;99.90;;;;;;5073644;28;20172;-68
2023/07/18 03:24:39;;;;;;;7.93;3.60;;;24.50;99.90;;;;;;5073555;28;20192;-68
2023/07/18 03:27:07;;;;;;;8.57;3.13;;;24.50;99.90;;;;;;5073618;28;20200;-70
2023/07/18 03:29:35;;;;;;;14.87;4.17;;;24.60;99.90;;;;;;5073231;28;20698;-69
2023/07/18 03:32:02;;;;;;;16.87;3.87;;;24.60;99.90;;;;;;5073655;28;20198;-71
2023/07/18 03:34:29;;;;;;;9.90;3.47;;;24.60;99.90;;;;;;5073290;28;20555;-69
2023/07/18 03:36:58;;;;;;;6.40;2.97;;;25.00;99.90;;;;;;5073333;28;20232;-68
2023/07/18 03:39:26;;;;;;;8.20;2.83;;;25.00;99.90;;;;;;5073088;28;20233;-68
2023/07/18 03:41:53;;;;;;;8.93;3.03;;;25.10;99.90;;;;;;5071625;28;20179;-70
2023/07/18 03:44:20;;;;;;;5.60;2.80;;;25.40;99.90;;;;;;5073188;28;20167;-70
2023/07/18 03:46:48;;;;;;;5.90;2.40;;;25.40;99.90;;;;;;5072909;28;20164;-70
2023/07/18 03:49:16;;;;;;;10.73;3.40;;;25.00;99.90;;;;;;5073298;28;20206;-68
2023/07/18 03:51:43;;;;;;;7.23;2.20;;;24.70;99.90;;;;;;5073050;28;20195;-69
2023/07/18 03:54:10;;;;;;;5.37;1.80;;;24.70;99.90;;;;;;5073281;28;20246;-70
2023/07/18 03:56:38;;;;;;;4.43;1.70;;;24.80;99.90;;;;;;5072891;28;20203;-68
2023/07/18 03:59:05;;;;;;;5.87;1.87;;;25.00;99.90;;;;;;5072927;28;20180;-69
2023/07/18 04:01:33;;;;;;;9.73;2.40;;;24.90;97.90;;;;;;5072711;28;20598;-70
2023/07/18 04:04:00;;;;;;;8.77;2.00;;;24.70;99.90;;;;;;5072886;28;20168;-69
2023/07/18 04:06:27;;;;;;;3.40;1.70;;;24.60;99.90;;;;;;5071568;28;20183;-71
2023/07/18 04:08:55;;;;;;;5.07;1.80;;;24.60;96.70;;;;;;5072510;28;20172;-69
2023/07/18 04:11:22;;;;;;;4.80;1.70;;;24.60;92.40;;;;;;5072786;28;20180;-69
2023/07/18 04:13:50;;;;;;;4.70;1.90;;;24.70;95.00;;;;;;5072631;28;20218;-70
2023/07/18 04:16:17;;;;;;;4.10;1.73;;;24.60;93.80;;;;;;5072623;28;20227;-69
2023/07/18 04:18:49;;;;;;;5.70;1.70;;;24.50;95.30;;;;;;5072965;28;20754;-70
2023/07/18 04:21:17;;;;;;;4.90;1.60;;;24.90;96.40;;;;;;5073068;28;20180;-71
2023/07/18 04:23:44;;;;;;;7.23;2.27;;;24.80;91.10;;;;;;5072950;28;20644;-69
2023/07/18 04:26:12;;;;;;;6.63;1.93;;;24.70;90.10;;;;;;5072822;28;20175;-70
2023/07/18 04:28:40;;;;;;;4.00;1.83;;;24.70;83.00;;;;;;5072442;28;20175;-70
2023/07/18 04:31:08;;;;;;;5.57;1.60;;;24.80;72.20;;;;;;5072838;28;20200;-69
2023/07/18 04:33:38;;;;;;;6.57;1.30;;;24.40;75.60;;;;;;5072520;28;20172;-69
2023/07/18 04:36:07;;;;;;;3.23;1.67;;;24.60;79.70;;;;;;5072779;28;20191;-68
2023/07/18 04:38:37;;;;;;;2.77;1.27;;;24.20;61.20;;;;;;5072231;28;20211;-71
2023/07/18 04:41:05;;;;;;;3.93;1.43;;;24.10;58.00;;;;;;5072510;28;20237;-71
2023/07/18 04:43:33;;;;;;;2.57;1.20;;;24.30;57.30;;;;;;5072346;28;20184;-68
2023/07/18 04:46:01;;;;;;;3.93;1.83;;;24.40;46.40;;;;;;5072705;28;20175;-70
2023/07/18 04:48:29;;;;;;;2.07;1.60;;;23.50;36.40;;;;;;5071058;28;20191;-71
2023/07/18 04:51:01;;;;;;;3.33;0.90;;;23.60;33.40;;;;;;5072472;28;20587;-69
2023/07/18 04:53:30;;;;;;;2.13;1.07;;;23.80;30.40;;;;;;5071166;28;20188;-68
2023/07/18 04:56:00;;;;;;;2.13;0.97;;;24.30;32.50;;;;;;5071291;28;20188;-70
2023/07/18 04:58:28;;;;;;;3.20;0.80;;;24.60;29.70;;;;;;5070857;28;20223;-71
2023/07/18 05:00:57;;;;;;;3.27;0.90;;;24.30;21.50;;;;;;5072461;28;20184;-70
2023/07/18 05:03:25;;;;;;;4.43;0.80;;;24.10;20.50;;;;;;5070947;28;20176;-69
2023/07/18 05:05:53;;;;;;;1.87;0.73;;;24.00;19.80;;;;;;5072843;28;20176;-71
2023/07/18 05:08:22;;;;;;;2.63;0.60;;;23.90;19.20;;;;;;5072333;28;20176;-71
2023/07/18 05:10:51;;;;;;;1.23;0.70;;;23.90;20.10;;;;;;5072133;28;20313;-69
2023/07/18 05:13:19;;;;;;;1.73;0.83;;;23.90;20.50;;;;;;5072159;28;20258;-68
2023/07/18 05:15:47;;;;;;;2.30;0.90;;;23.80;20.40;;;;;;5071771;28;20230;-69
2023/07/18 05:18:15;;;;;;;2.07;0.90;;;23.30;20.20;;;;;;5071962;28;20819;-68
2023/07/18 05:20:43;;;;;;;1.03;0.93;;;22.70;21.00;;;;;;5073940;28;20172;-70
2023/07/18 05:23:11;;;;;;;1.83;0.93;;;22.20;20.60;;;;;;5075802;28;20180;-69
2023/07/18 05:25:38;;;;;;;1.20;0.93;;;22.40;20.80;;;;;;5075636;28;20179;-69
2023/07/18 05:28:06;;;;;;;1.53;0.80;;;22.70;21.60;;;;;;5075615;28;20191;-68
2023/07/18 05:30:34;;;;;;;4.10;1.03;;;22.80;19.60;;;;;;5075403;28;20175;-70
2023/07/18 05:33:02;;;;;;;1.13;0.80;;;22.80;21.20;;;;;;5075665;28;20184;-68
2023/07/18 05:35:30;;;;;;;4.10;0.87;;;22.80;21.20;;;;;;5074029;28;20190;-68
2023/07/18 05:37:57;;;;;;;1.47;0.90;;;22.70;22.80;;;;;;5075379;28;20665;-69
2023/07/18 05:40:25;;;;;;;2.20;0.77;;;22.40;22.10;;;;;;5073792;28;20202;-69
2023/07/18 05:42:54;;;;;;;1.50;0.80;;;22.30;22.70;;;;;;5075618;28;20221;-69
2023/07/18 05:45:21;;;;;;;1.60;0.80;;;22.30;24.10;;;;;;5075358;28;20168;-70
2023/07/18 05:47:49;;;;;;;1.20;0.77;;;22.30;24.10;;;;;;5075156;28;20229;-70
2023/07/18 05:50:18;;;;;;;1.00;0.90;;;22.20;24.30;;;;;;5075464;28;20180;-69
2023/07/18 05:52:46;;;;;;;1.37;1.00;;;22.00;24.70;;;;;;5075497;28;20184;-68
2023/07/18 05:55:14;;;;;;;2.47;0.90;;;21.90;25.90;;;;;;5075163;28;20180;-68
2023/07/18 05:57:42;;;;;;;1.10;1.00;;;21.80;26.50;;;;;;5074902;28;20279;-68
2023/07/18 06:00:11;;;;;;;2.23;1.13;;;21.60;27.20;;;;;;5074898;28;20182;-68
2023/07/18 06:02:39;;;;;;;2.20;1.13;;;21.40;27.70;;;;;;5074932;28;20210;-69
2023/07/18 06:05:07;;;;;;;3.00;1.20;;;21.20;28.00;;;;;;5074855;28;20179;-69
2023/07/18 06:07:35;;;;;;;4.00;1.20;;;21.10;28.60;;;;;;5074884;28;20202;-69
2023/07/18 06:10:03;;;;;;;2.53;1.17;;;21.10;29.60;;;;;;5075350;28;20185;-69
2023/07/18 06:12:31;;;;;;;2.47;1.10;;;21.00;30.90;;;;;;5074761;28;20623;-68
2023/07/18 06:15:00;;;;;;;2.33;1.20;;;20.90;32.90;;;;;;5074926;28;20617;-69
2023/07/18 06:17:28;;;;;;;2.10;1.10;;;20.90;34.30;;;;;;5074493;28;20285;-69
2023/07/18 06:19:56;;;;;;;2.83;1.43;;;20.80;34.30;;;;;;5074451;28;20241;-68
2023/07/18 06:22:23;;;;;;;1.90;1.00;;;20.70;32.30;;;;;;5074752;28;20195;-69
2023/07/18 06:24:52;;;;;;;2.37;1.00;;;20.70;31.70;;;;;;5074540;28;20203;-68
2023/07/18 06:27:19;;;;;;;1.30;0.93;;;20.60;32.10;;;;;;5074449;28;20179;-71
2023/07/18 06:29:47;;;;;;;1.50;1.00;;;20.50;32.40;;;;;;5074290;28;20175;-69
2023/07/18 06:32:15;;;;;;;1.63;0.97;;;20.30;32.10;;;;;;5074282;28;20229;-69
2023/07/18 06:34:43;;;;;;;1.40;1.13;;;20.30;33.00;;;;;;5073048;28;20176;-68
2023/07/18 06:37:11;;;;;;;2.17;1.30;;;20.20;35.00;;;;;;5072808;28;20632;-69
2023/07/18 06:39:39;;;;;;;2.17;1.20;;;20.10;34.10;;;;;;5073851;28;20180;-69
2023/07/18 06:42:08;;;;;;;1.87;1.10;;;20.20;33.20;;;;;;5074085;28;20226;-69
2023/07/18 06:44:36;;;;;;;4.73;1.47;;;20.10;33.30;;;;;;5074203;28;20186;-69
2023/07/18 06:47:04;;;;;;;4.80;1.03;;;20.00;35.20;;;;;;5074161;28;20175;-68
2023/07/18 06:49:32;;;;;;;3.00;1.37;;;20.10;32.50;;;;;;5073980;28;20637;-68
2023/07/18 06:52:00;;;;;;;5.10;1.30;;;19.90;32.70;;;;;;5073788;28;20186;-69
2023/07/18 06:54:28;;;;;;;2.90;1.10;;;19.80;34.20;;;;;;5073959;28;20189;-69
2023/07/18 06:56:55;;;;;;;2.43;1.43;;;19.90;32.30;;;;;;5072379;28;20608;-68
2023/07/18 06:59:24;;;;;;;6.20;1.53;;;19.80;33.30;;;;;;5074222;28;20183;-68
2023/07/18 07:01:52;;;;;;;6.20;1.70;;;19.70;33.40;;;;;;5073646;28;20177;-69
2023/07/18 07:04:20;;;;;;;9.20;2.13;;;19.60;36.10;;;;;;5073765;28;20172;-70
2023/07/18 07:06:48;;;;;;;4.47;2.00;;;19.50;35.50;;;;;;5073656;28;20205;-69
2023/07/18 07:09:15;;;;;;;3.97;1.63;;;19.40;36.40;;;;;;5075120;28;20335;-70
2023/07/18 07:11:46;;;;;;;3.43;1.77;;;19.30;40.10;;;;;;5073585;28;20182;-69
2023/07/18 07:14:14;;;;;;;5.37;1.60;;;19.10;43.60;;;;;;5074685;28;20595;-66
2023/07/18 07:16:42;;;;;;;5.60;1.80;;;18.90;45.40;;;;;;5074696;28;20234;-69
2023/07/18 07:19:10;;;;;;;3.87;2.20;;;18.70;51.20;;;;;;5073768;28;20259;-68
2023/07/18 07:21:38;;;;;;;2.90;1.57;;;18.50;52.50;;;;;;5073125;28;20575;-69
2023/07/18 07:24:08;;;;;;;3.53;2.03;;;18.20;57.60;;;;;;5073285;28;20192;-69
2023/07/18 07:26:39;;;;;;;8.80;2.10;;;18.00;61.30;;;;;;5071713;28;20199;-68
2023/07/18 07:29:07;;;;;;;2.97;2.00;;;17.80;64.60;;;;;;5073322;28;20184;-69
2023/07/18 07:31:37;;;;;;;6.07;2.60;;;17.60;70.50;;;;;;5072859;28;20200;-69
2023/07/18 07:34:05;;;;;;;2.70;1.83;;;17.40;75.20;;;;;;5073561;28;20215;-69
2023/07/18 07:36:33;;;;;;;5.07;1.70;;;17.30;78.60;;;;;;5072876;28;20627;-70
2023/07/18 07:39:01;;;;;;;4.87;1.97;;;17.20;83.20;;;;;;5071599;28;20199;-69
2023/07/18 07:41:28;;;;;;;4.07;1.70;;;17.10;85.00;;;;;;5072702;28;20648;-71
2023/07/18 07:43:56;;;;;;;3.47;1.97;;;16.90;87.40;;;;;;5071197;28;20285;-72
2023/07/18 07:46:24;;;;;;;4.23;1.60;;;16.80;88.10;;;;;;5073490;28;20172;-70
2023/07/18 07:48:52;;;;;;;3.63;1.63;;;16.70;90.70;;;;;;5072079;28;20176;-73
2023/07/18 07:51:20;;;;;;;4.87;1.77;;;16.50;96.90;;;;;;5073646;28;20176;-69
2023/07/18 07:53:48;;;;;;;6.77;1.83;;;16.30;97.40;;;;;;5073361;28;20184;-71
2023/07/18 07:56:16;;;;;;;3.57;1.57;;;16.20;97.50;;;;;;5073497;28;20180;-69
2023/07/18 07:58:44;;;;;;;2.00;1.53;;;16.10;99.90;;;;;;5055333;28;20285;-74
2023/07/18 08:01:12;;;;;;;4.27;2.00;;;15.90;99.90;;;;;;5073356;28;20164;-72
2023/07/18 08:03:40;;;;;;;4.50;1.80;;;15.80;99.90;;;;;;5073396;28;20188;-72
2023/07/18 08:06:08;;;;;;;4.00;1.73;;;15.70;99.50;;;;;;5073225;28;20202;-69
2023/07/18 08:08:36;;;;;;;2.57;1.70;;;15.60;98.60;;;;;;5073376;28;20641;-73
2023/07/18 08:11:04;;;;;;;2.70;1.70;;;15.50;99.90;;;;;;5071938;28;20180;-72
2023/07/18 08:13:32;;;;;;;3.63;1.70;;;15.40;99.90;;;;;;5073175;28;20629;-73
2023/07/18 08:16:05;;;;;;;4.73;2.10;;;15.30;99.90;;;;;;5073159;28;20215;-71
2023/07/18 08:18:34;;;;;;;3.43;1.90;;;15.30;99.90;;;;;;5073328;28;20310;-71
2023/07/18 08:21:02;;;;;;;4.10;2.57;;;15.20;99.90;;;;;;5073204;28;20172;-72
2023/07/18 08:23:33;;;;;;;3.07;2.23;;;15.10;99.90;;;;;;5071952;28;20559;-71
2023/07/18 08:26:00;;;;;;;3.80;2.27;;;15.10;99.90;;;;;;5073103;28;20542;-72
2023/07/18 08:28:28;;;;;;;9.70;2.20;;;15.10;99.90;;;;;;5073121;28;20187;-70
2023/07/18 08:30:56;;;;;;;3.23;2.40;;;15.00;99.90;;;;;;5073296;28;20263;-73
2023/07/18 08:33:24;;;;;;;3.87;2.37;;;14.90;99.90;;;;;;5073338;28;20180;-73
2023/07/18 08:35:53;;;;;;;5.23;2.70;;;14.80;99.90;;;;;;5073057;28;20172;-72
2023/07/18 08:38:24;;;;;;;4.87;2.30;;;14.70;99.90;;;;;;5072846;28;20255;-71
2023/07/18 08:40:52;;;;;;;4.10;2.63;;;14.50;99.90;;;;;;5073281;28;20175;-72
2023/07/18 08:43:21;;;;;;;7.60;2.60;;;14.40;99.90;;;;;;5073145;28;20181;-71
2023/07/18 08:45:50;;;;;;;5.63;2.60;;;14.40;99.90;;;;;;5072857;28;20206;-73
2023/07/18 08:48:18;;;;;;;4.83;2.50;;;14.30;99.90;;;;;;5072889;28;20323;-70
2023/07/18 08:50:49;;;;;;;4.57;2.53;;;14.20;99.90;;;;;;5072950;28;20278;-71
2023/07/18 08:53:17;;;;;;;9.37;3.00;;;14.10;99.90;;;;;;5072932;28;20493;-69
2023/07/18 08:55:45;;;;;;;5.80;2.70;;;14.00;99.90;;;;;;5076721;28;20182;-68
2023/07/18 08:58:13;;;;;;;8.07;3.00;;;14.00;99.90;;;;;;5076578;28;20230;-69
2023/07/18 09:00:43;;;;;;;9.57;2.77;;;14.00;99.90;;;;;;5076630;28;20194;-68
2023/07/18 09:03:15;;;;;;;10.70;4.53;;;13.80;99.90;;;;;;5076523;28;20276;-69
2023/07/18 09:05:44;;;;;;;8.43;3.70;;;13.80;99.90;;;;;;5075368;28;20190;-71
2023/07/18 09:08:12;;;;;;;5.73;3.27;;;13.70;99.90;;;;;;5076643;28;20184;-70
2023/07/18 09:10:40;;;;;;;4.60;3.40;;;13.60;99.90;;;;;;5076611;28;20195;-69
2023/07/18 09:13:09;;;;;;;6.27;3.53;;;13.50;99.90;;;;;;5076594;28;20183;-68
2023/07/18 09:15:38;;;;;;;6.90;3.57;;;13.50;99.90;;;;;;5075193;28;20173;-69
2023/07/18 09:18:12;;;;;;;13.03;4.07;;;13.40;99.90;;;;;;5076578;28;20755;-69
2023/07/18 09:20:40;;;;;;;8.77;3.63;;;13.30;99.90;;;;;;5076123;28;20204;-68
2023/07/18 09:23:08;;;;;;;5.83;3.63;;;13.20;99.90;;;;;;5076228;28;20471;-69
2023/07/18 09:25:39;;;;;;;13.30;2.80;;;13.20;99.90;;;;;;5076061;28;20227;-70
2023/07/18 09:31:29;;;;;;;6.67;2.90;;;13.10;99.90;;;;;;5075398;28;20190;-68
2023/07/18 09:33:57;;;;;;;5.67;3.07;;;13.00;99.90;;;;;;5074811;28;20186;-72
2023/07/18 09:36:27;;;;;;;3.47;2.50;;;12.90;99.90;;;;;;5076047;28;20609;-69
2023/07/18 09:38:56;;;;;;;4.87;2.50;;;12.80;99.90;;;;;;5074556;28;20718;-71
2023/07/18 09:41:24;;;;;;;7.50;2.60;;;12.80;99.90;;;;;;5075836;28;20235;-70
2023/07/18 09:43:54;;;;;;;4.37;2.60;;;12.80;99.90;;;;;;5075929;28;20655;-69
2023/07/18 09:46:22;;;;;;;5.07;2.23;;;12.80;99.90;;;;;;5076119;28;20592;-71
2023/07/18 09:48:50;;;;;;;5.67;2.40;;;12.90;99.90;;;;;;5075727;28;20635;-71
2023/07/18 09:51:21;;;;;;;2.63;2.00;;;13.00;99.90;;;;;;5075779;28;20210;-70
2023/07/18 09:53:49;;;;;;;4.60;2.00;;;13.10;99.90;;;;;;5074506;28;20182;-69
2023/07/18 09:56:18;;;;;;;2.73;1.93;;;13.10;99.90;;;;;;5075445;28;20188;-69
2023/07/18 09:58:47;;;;;;;2.57;1.53;;;13.20;99.90;;;;;;5075469;28;20290;-69
2023/07/18 10:01:21;;;;;;;2.97;1.63;;;13.20;99.90;;;;;;5074759;28;20662;-69
2023/07/18 10:03:49;;;;;;;3.63;1.30;;;13.30;99.90;;;;;;5075822;28;20262;-71
2023/07/18 10:06:18;;;;;;;2.70;1.40;;;13.40;99.90;;;;;;5073513;28;20183;-68
2023/07/18 10:08:46;;;;;;;3.33;1.87;;;13.40;99.90;;;;;;5074236;28;20277;-69
2023/07/18 10:11:14;;;;;;;2.07;1.60;;;13.40;99.90;;;;;;5075354;28;20191;-72
2023/07/18 10:14:06;;;;;;;3.37;1.63;;;13.40;99.90;;;;;;5074053;28;20665;-71
2023/07/18 10:16:41;;;;;;;1.77;1.40;;;13.30;99.90;;;;;;5073760;28;20230;-72
2023/07/18 10:19:23;;;;;;;4.73;1.87;;;13.30;99.90;;;;;;5075426;28;20281;-71
2023/07/18 10:21:54;;;;;;;3.97;1.70;;;13.30;99.90;;;;;;5075073;28;20655;-71
2023/07/18 10:24:28;;;;;;;4.50;1.47;;;13.30;99.90;;;;;;5075205;28;20228;-71
2023/07/18 10:27:00;;;;;;;3.30;1.70;;;13.20;99.90;;;;;;5075213;28;20256;-72
2023/07/18 10:29:32;;;;;;;3.03;1.47;;;13.10;99.90;;;;;;5075097;28;20179;-71
2023/07/18 10:32:00;;;;;;;2.40;1.37;;;13.10;99.90;;;;;;5075213;28;20531;-72
2023/07/18 10:34:28;;;;;;;3.57;1.73;;;13.20;99.90;;;;;;5074989;28;20184;-72
2023/07/18 10:37:00;;;;;;;1.40;1.23;;;13.20;99.90;;;;;;5074873;28;20188;-71
2023/07/18 10:39:40;;;;;;;2.87;1.40;;;13.20;99.90;;;;;;5074940;28;20187;-72
2023/07/18 10:42:26;;;;;;;1.40;1.30;;;13.20;99.90;;;;;;5073659;28;20193;-72
2023/07/18 10:45:01;;;;;;;3.37;1.70;;;13.40;99.90;;;;;;5074758;28;20217;-71
2023/07/18 10:47:29;;;;;;;4.70;1.97;;;13.50;99.90;;;;;;5075187;28;20583;-72
2023/07/18 10:49:57;;;;;;;5.17;1.50;;;13.70;99.90;;;;;;5074563;28;20182;-72
2023/07/18 10:52:25;;;;;;;2.20;1.40;;;13.80;99.90;;;;;;5074748;28;20213;-71
2023/07/18 10:54:55;;;;;;;2.13;1.30;;;13.80;99.90;;;;;;5074738;28;20647;-72
2023/07/18 10:57:26;;;;;;;2.63;1.40;;;13.90;99.90;;;;;;5074272;28;20207;-70
2023/07/18 10:59:54;;;;;;;1.63;1.10;;;14.00;99.90;;;;;;5074484;28;20181;-71
2023/07/18 11:02:23;;;;;;;4.13;1.47;;;14.00;99.90;;;;;;5074364;28;20174;-72
2023/07/18 11:04:53;;;;;;;1.80;1.50;;;14.00;99.90;;;;;;5074693;28;20179;-73
2023/07/18 11:07:35;;;;;;;4.07;1.83;;;14.10;99.90;;;;;;5073182;28;20551;-72
2023/07/18 11:10:03;;;;;;;3.07;1.60;;;14.10;99.90;;;;;;5074064;28;20175;-71
2023/07/18 11:12:31;;;;;;;1.83;1.30;;;14.00;99.90;;;;;;5074139;28;20175;-71
2023/07/18 11:14:59;;;;;;;2.07;1.33;;;13.90;99.90;;;;;;5072914;28;20190;-71
2023/07/18 11:17:27;;;;;;;3.17;1.90;;;13.90;99.90;;;;;;5073113;28;20572;-71
2023/07/18 11:19:58;;;;;;;2.30;1.30;;;14.00;99.90;;;;;;5074214;28;20232;-72
2023/07/18 11:22:27;;;;;;;3.07;1.70;;;13.90;99.90;;;;;;5074201;28;20193;-72
2023/07/18 11:24:56;;;;;;;2.40;1.40;;;13.90;99.90;;;;;;5073889;28;20176;-71
2023/07/18 11:27:25;;;;;;;1.93;1.30;;;14.00;99.90;;;;;;5073946;28;20229;-71
2023/07/18 11:30:01;;;;;;;2.23;1.37;;;13.90;99.90;;;;;;5073816;28;20556;-72
2023/07/18 11:32:43;;;;;;;5.20;1.50;;;14.10;99.90;;;;;;5073889;28;20198;-72
2023/07/18 11:35:23;;;;;;;2.07;1.27;;;14.20;99.90;;;;;;5073658;28;20176;-70
2023/07/18 11:37:54;;;;;;;3.70;1.40;;;14.40;99.90;;;;;;5073663;28;20261;-72
2023/07/18 11:40:25;;;;;;;3.93;1.10;;;14.50;99.90;;;;;;5073755;28;20591;-71
2023/07/18 11:42:56;;;;;;;1.40;1.13;;;14.60;99.90;;;;;;5073770;28;20282;-72
2023/07/18 11:45:29;;;;;;;2.73;1.50;;;14.70;99.90;;;;;;5073540;28;20262;-72
2023/07/18 11:47:59;;;;;;;2.43;1.27;;;14.80;99.90;;;;;;5071871;28;20694;-72
2023/07/18 11:50:30;;;;;;;4.43;1.53;;;14.90;99.90;;;;;;5073699;28;20229;-71
2023/07/18 11:52:59;;;;;;;2.93;1.40;;;14.90;99.90;;;;;;5073545;28;20289;-72
2023/07/18 11:55:28;;;;;;;2.40;1.50;;;14.90;99.90;;;;;;5073693;28;20262;-72
2023/07/18 11:57:55;;;;;;;2.93;1.37;;;14.90;99.90;;;;;;5073479;28;20210;-74
2023/07/18 12:00:24;;;;;;;4.20;2.00;;;14.80;99.90;;;;;;5073393;28;20660;-72
2023/07/18 12:02:52;;;;;;;4.53;1.60;;;14.70;99.90;;;;;;5073506;28;20611;-74
2023/07/18 12:05:20;;;;;;;1.97;1.70;;;14.60;99.90;;;;;;5073490;28;20268;-72
2023/07/18 12:07:48;;;;;;;1.97;1.27;;;14.50;99.90;;;;;;5073409;28;20248;-71
2023/07/18 12:10:16;;;;;;;5.33;1.57;;;14.30;99.90;;;;;;5073095;28;20191;-71
2023/07/18 12:12:44;;;;;;;1.80;1.60;;;14.20;99.90;;;;;;5071903;28;20220;-70
2023/07/18 12:15:13;;;;;;;1.97;1.47;;;14.10;99.90;;;;;;5073366;28;20566;-71
2023/07/18 12:17:41;;;;;;;2.43;1.37;;;14.10;99.90;;;;;;5072990;28;20318;-73
2023/07/18 12:20:10;;;;;;;2.43;1.67;;;14.20;99.90;;;;;;5073086;28;20538;-71
2023/07/18 12:22:38;;;;;;;2.00;1.43;;;14.10;99.90;;;;;;5073025;28;20551;-71
2023/07/18 12:25:06;;;;;;;2.50;1.70;;;14.00;99.90;;;;;;5073185;28;20483;-72
2023/07/18 12:27:34;;;;;;;2.27;1.50;;;13.90;99.90;;;;;;5072979;28;20183;-72
2023/07/18 12:30:02;;;;;;;3.47;1.47;;;13.80;99.90;;;;;;5072945;28;20179;-72
2023/07/18 12:32:30;;;;;;;1.33;1.23;;;13.60;99.90;;;;;;5072928;28;20705;-72
2023/07/18 12:34:57;;;;;;;4.43;1.40;;;13.60;99.90;;;;;;5073838;28;20240;-71
2023/07/18 12:37:25;;;;;;;2.20;1.87;;;13.40;99.90;;;;;;5072882;28;20311;-70
2023/07/18 12:39:56;;;;;;;1.87;1.40;;;13.30;99.90;;;;;;5073331;28;20206;-73
2023/07/18 12:42:24;;;;;;;2.33;1.60;;;13.20;99.90;;;;;;5072993;28;20175;-72
2023/07/18 12:44:52;;;;;;;4.30;2.03;;;13.10;99.90;;;;;;5073235;28;20275;-74
2023/07/18 12:47:19;;;;;;;4.37;1.83;;;13.00;99.90;;;;;;5070986;28;20179;-71
2023/07/18 12:49:47;;;;;;;2.07;1.50;;;12.90;99.90;;;;;;5072814;28;20532;-70
2023/07/18 12:52:15;;;;;;;2.53;1.60;;;12.90;99.90;;;;;;5072639;28;20193;-71
2023/07/18 12:54:43;;;;;;;3.83;1.60;;;12.90;99.90;;;;;;5072792;28;20636;-72
2023/07/18 12:57:11;;;;;;;1.77;1.50;;;12.80;99.90;;;;;;5072772;28;20205;-70